ブカレスト の空港の天気 - METARとTAF

アンリ・コアンダ国際空港(ブカレスト) ( LROP / OTP ) - ルーマニア ブカレスト
飛行場実況気象(Metar)
観測時間02/05 21:30 EET (02/05 19:30 UTC)
風向・風速西 2m/s
視程10km以上
天気現象
なし
気温-5℃
湿度86%
気圧1027hPa
METARLROP 051930Z 27003KT 250V340 CAVOK M05/M07 Q1027 NOSIG
過去の天気等 Google飛行場航空写真 Wunderground天気予報

過去48時間のMETAR

飛行場予報(TAF)
発表時間: 2/05 19:00 EET (2/05 17:00 UTC)
予報対象時間: 5日20時 EET ~ 6日20時 EET
風向・風速不定 2m/s
視程10km以上
全天の4割程度の雲 雲底高度 1370m
6日2時 EET ~ 6日10時 EET に 確率 40% で一時的に
視程5000m
天気現象弱い雪 もや
6日10時 EET ~ 6日12時 EET に徐々に
風向・風速北東 5m/s
TAF LROP 051700Z 0518/0618 VRB04KT 9999 SCT045
PROB40 TEMPO 0600/0608 5000 -SN BR
BECMG 0608/0610 04010KT